Time;durP1;ratioP1;P1;durP2;ratioP2;P2;SDS_P1;SDS_P2;PMS_P1;PMS_P2;Temp;Humidity;BMP_temperature;BMP_pressure;BME280_temperature;BME280_humidity;BME280_pressure;Samples;Min_cycle;Max_cycle;Signal;HPM_P1;HPM_P2
2022/03/12 00:02:00;;;;;;;18.58;10.20;;;;;;;-143.84;80.52;45264.25;5033269;28;20200;-77
2022/03/12 00:04:27;;;;;;;16.38;9.40;;;;;;;-143.84;80.55;45296.63;5033324;28;20228;-77
2022/03/12 00:06:55;;;;;;;13.95;9.32;;;;;;;-143.84;80.47;45269.97;5033629;28;20290;-77
2022/03/12 00:09:23;;;;;;;16.65;9.63;;;;;;;-143.84;80.77;45273.78;5033161;28;20254;-77
2022/03/12 00:11:56;;;;;;;17.92;9.50;;;;;;;-143.84;80.91;45273.78;5025135;28;20196;-77
2022/03/12 00:14:27;;;;;;;14.20;9.55;;;;;;;-143.84;80.90;45266.16;5033184;28;20200;-77
2022/03/12 00:16:55;;;;;;;13.68;9.60;;;;;;;-143.84;80.96;45292.81;5032699;28;20196;-77
2022/03/12 00:19:22;;;;;;;20.25;11.32;;;;;;;-143.84;80.57;45285.19;5033507;28;20200;-77
2022/03/12 00:21:50;;;;;;;16.58;10.30;;;;;;;-143.84;80.39;45298.53;5025166;28;20196;-77
2022/03/12 00:24:18;;;;;;;16.38;9.68;;;;;;;-143.84;80.40;45285.19;5032871;28;20275;-77
2022/03/12 00:26:49;;;;;;;16.67;9.50;;;;;;;-143.84;80.59;45277.56;5032860;28;20200;-77
2022/03/12 00:29:20;;;;;;;19.42;9.18;;;;;;;-143.84;80.74;45281.38;5032907;28;20196;-77
2022/03/12 00:31:50;;;;;;;13.93;9.65;;;;;;;-143.84;81.06;45262.34;5032870;28;20188;-76
2022/03/12 00:34:17;;;;;;;14.10;9.10;;;;;;;-143.84;80.63;45268.06;5033002;28;20200;-76
2022/03/12 00:36:45;;;;;;;13.43;8.77;;;;;;;-143.84;80.39;45287.09;5032722;28;20192;-76
2022/03/12 00:39:15;;;;;;;13.55;8.10;;;;;;;-143.84;80.42;45269.97;5032936;28;20196;-77
2022/03/12 00:41:42;;;;;;;12.60;9.38;;;;;;;-143.84;80.84;45266.16;5031315;28;20207;-77
2022/03/12 00:44:10;;;;;;;14.98;9.60;;;;;;;-143.84;80.41;45256.63;5030980;28;20612;-77
2022/03/12 00:46:38;;;;;;;15.98;9.40;;;;;;;-143.84;80.04;45266.16;5033053;28;20870;-77
2022/03/12 00:49:07;;;;;;;16.48;10.48;;;;;;;-143.84;79.73;45279.47;5031913;28;20716;-77
2022/03/12 00:51:34;;;;;;;11.27;9.10;;;;;;;-143.84;79.50;45249.00;5032542;28;20642;-77
2022/03/12 00:54:01;;;;;;;13.07;8.27;;;;;;;-143.84;79.66;45266.16;5029116;28;20208;-73
2022/03/12 00:56:29;;;;;;;15.45;9.65;;;;;;;-143.84;79.51;45241.41;5029557;28;20208;-73
2022/03/12 00:58:56;;;;;;;14.80;9.40;;;;;;;-143.84;79.42;45254.72;5029348;28;20665;-74
2022/03/12 01:01:26;;;;;;;16.33;9.15;;;;;;;-143.84;79.68;45292.81;5029428;28;20208;-74
2022/03/12 01:03:53;;;;;;;11.23;6.35;;;;;;;-143.84;79.68;45271.88;5021884;28;20234;-74
2022/03/12 01:06:23;;;;;;;14.55;8.30;;;;;;;-143.84;79.41;45268.06;5029607;28;20261;-74
2022/03/12 01:08:50;;;;;;;20.70;10.13;;;;;;;-143.84;79.56;45268.06;5021584;28;20210;-73
2022/03/12 01:11:17;;;;;;;11.70;8.05;;;;;;;-143.84;79.46;45277.56;5028871;28;20656;-74
2022/03/12 01:13:45;;;;;;;16.77;9.20;;;;;;;-143.84;79.42;45268.06;5029097;28;20208;-73
2022/03/12 01:16:12;;;;;;;11.93;8.65;;;;;;;-143.84;79.33;45271.88;5028212;28;20261;-74
2022/03/12 01:18:40;;;;;;;14.95;8.82;;;;;;;-143.84;79.19;45266.16;5028312;28;20223;-74
2022/03/12 01:21:10;;;;;;;13.30;9.02;;;;;;;-143.84;79.88;45241.41;5028947;28;20200;-73
2022/03/12 01:23:39;;;;;;;15.25;9.80;;;;;;;-143.84;79.71;45285.19;5027925;28;20325;-73
2022/03/12 01:26:06;;;;;;;18.73;9.05;;;;;;;-143.84;79.65;45281.38;5028553;28;20200;-74
2022/03/12 01:28:33;;;;;;;15.05;8.98;;;;;;;-143.84;79.62;45292.81;5029001;28;20258;-73
2022/03/12 01:31:01;;;;;;;16.25;10.13;;;;;;;-143.84;79.77;45249.00;5029021;28;20206;-73
2022/03/12 01:33:28;;;;;;;16.65;9.23;;;;;;;-143.84;79.80;45249.00;5029056;28;20273;-73
2022/03/12 01:35:55;;;;;;;12.93;9.25;;;;;;;-143.84;80.05;45250.91;5028934;28;20236;-73
2022/03/12 01:38:31;;;;;;;17.83;11.20;;;;;;;-143.84;80.20;45283.28;5028880;28;20204;-74
2022/03/12 01:41:03;;;;;;;22.05;9.40;;;;;;;-143.84;80.37;45271.88;5029158;28;20210;-73
2022/03/12 01:43:32;;;;;;;18.00;9.00;;;;;;;-143.84;80.05;45287.09;5028804;28;20231;-73
2022/03/12 01:46:01;;;;;;;14.05;9.77;;;;;;;-143.84;80.06;45262.34;5028873;28;20908;-73
2022/03/12 01:48:30;;;;;;;15.65;10.15;;;;;;;-143.84;80.11;45277.56;5028990;28;20588;-73
2022/03/12 01:50:58;;;;;;;13.65;9.07;;;;;;;-143.84;79.86;45262.34;5028979;28;20236;-73
2022/03/12 01:53:27;;;;;;;13.30;8.65;;;;;;;-143.84;79.73;45285.19;5028902;28;20207;-73
2022/03/12 01:55:57;;;;;;;18.95;11.10;;;;;;;-143.84;79.78;45268.06;5028643;28;20688;-73
2022/03/12 01:58:26;;;;;;;15.90;10.57;;;;;;;-143.84;79.74;45283.28;5028820;28;20204;-74
2022/03/12 02:00:56;;;;;;;15.52;10.10;;;;;;;-143.84;79.74;45273.78;5028802;28;20214;-74
2022/03/12 02:03:26;;;;;;;15.45;9.05;;;;;;;-143.84;79.71;45271.88;5028545;28;20235;-73
2022/03/12 02:05:54;;;;;;;16.60;9.98;;;;;;;-143.84;79.64;45287.09;5029016;28;20266;-73
2022/03/12 02:08:21;;;;;;;20.17;10.32;;;;;;;-143.84;79.89;45285.19;5028875;28;20204;-74
2022/03/12 02:10:50;;;;;;;13.55;8.52;;;;;;;-143.84;80.31;45275.66;5028293;28;20317;-74
2022/03/12 02:13:19;;;;;;;18.63;10.27;;;;;;;-143.84;80.35;45296.63;5028854;28;20222;-74
2022/03/12 02:15:47;;;;;;;15.80;9.93;;;;;;;-143.84;80.41;45271.88;5028945;28;20274;-74
2022/03/12 02:18:15;;;;;;;18.17;11.75;;;;;;;-143.84;80.37;45262.34;5028795;28;20204;-74
2022/03/12 02:20:42;;;;;;;14.25;10.02;;;;;;;-143.84;80.28;45250.91;5028628;28;20234;-74
2022/03/12 02:23:11;;;;;;;17.65;8.98;;;;;;;-143.84;80.26;45264.25;5028535;28;20730;-74
2022/03/12 02:25:39;;;;;;;17.20;10.50;;;;;;;-143.84;79.87;45300.44;5028475;28;20203;-74
2022/03/12 02:28:16;;;;;;;16.35;10.20;;;;;;;-143.84;80.11;45258.53;5028725;28;20685;-74
2022/03/12 02:30:48;;;;;;;17.27;10.93;;;;;;;-143.84;80.44;45233.78;5028498;28;20204;-74
2022/03/12 02:33:18;;;;;;;19.92;10.70;;;;;;;-143.84;80.75;45273.78;5028627;28;20211;-73
2022/03/12 02:35:46;;;;;;;12.15;9.35;;;;;;;-143.84;80.59;45264.25;5031949;28;20634;-74
2022/03/12 02:38:14;;;;;;;19.38;10.90;;;;;;;-143.84;80.37;45281.38;5031972;28;20682;-73
2022/03/12 02:40:44;;;;;;;16.90;10.88;;;;;;;-143.84;80.45;45281.38;5032145;28;20693;-73
2022/03/12 02:43:13;;;;;;;22.65;11.48;;;;;;;-143.84;79.99;45300.44;5032016;28;20235;-73
2022/03/12 02:45:41;;;;;;;15.15;9.63;;;;;;;-143.84;80.25;45273.78;5031799;28;20208;-73
2022/03/12 02:48:09;;;;;;;13.98;9.63;;;;;;;-143.84;80.46;45258.53;5031871;28;20196;-74
2022/03/12 02:50:37;;;;;;;18.60;10.98;;;;;;;-143.84;80.50;45283.28;5031888;28;20208;-74
2022/03/12 02:53:04;;;;;;;12.75;8.27;;;;;;;-143.84;80.45;45224.25;5031768;28;20713;-73
2022/03/12 02:55:34;;;;;;;17.38;10.48;;;;;;;-143.84;80.26;45275.66;5031770;28;20204;-74
2022/03/12 02:58:09;;;;;;;18.13;10.68;;;;;;;-143.84;80.33;45249.00;5031606;28;20214;-74
2022/03/12 03:00:37;;;;;;;17.10;10.00;;;;;;;-143.84;80.13;45294.72;5031885;28;20200;-74
2022/03/12 03:03:06;;;;;;;21.60;11.38;;;;;;;-143.84;80.04;45292.81;5031556;28;20214;-74
2022/03/12 03:05:45;;;;;;;15.82;10.90;;;;;;;-143.84;80.25;45243.31;5031501;28;20224;-73
2022/03/12 03:08:16;;;;;;;19.17;11.15;;;;;;;-143.84;80.33;45273.78;5031850;28;20199;-73
2022/03/12 03:10:45;;;;;;;18.10;10.50;;;;;;;-143.84;79.90;45283.28;5031224;28;20243;-74
2022/03/12 03:13:33;;;;;;;14.35;9.85;;;;;;;-143.84;79.99;45273.78;5031303;28;20208;-74
2022/03/12 03:16:02;;;;;;;17.45;10.40;;;;;;;-143.84;79.98;45269.97;5031459;28;20262;-74
2022/03/12 03:18:32;;;;;;;18.08;9.98;;;;;;;-143.84;80.11;45237.59;5031220;28;20257;-74
2022/03/12 03:21:00;;;;;;;15.65;10.57;;;;;;;-143.84;79.90;45258.53;5031565;28;20269;-73
2022/03/12 03:23:34;;;;;;;17.85;12.02;;;;;;;-143.84;80.28;45275.66;5030168;28;20212;-74
2022/03/12 03:26:11;;;;;;;18.45;10.07;;;;;;;-143.84;80.54;45271.88;5030075;28;20219;-74
2022/03/12 03:28:48;;;;;;;14.45;8.48;;;;;;;-143.84;81.23;45268.06;5030144;28;20211;-74
2022/03/12 03:31:22;;;;;;;13.93;9.38;;;;;;;-143.84;81.14;45273.78;5030107;28;20207;-74
2022/03/12 03:33:54;;;;;;;19.65;10.52;;;;;;;-143.84;81.25;45285.19;5030281;28;20207;-74
2022/03/12 04:43:46;;;;;;;18.00;11.50;;;;;;;-143.84;80.79;45247.09;5036015;28;20373;-74
2022/03/12 04:46:13;;;;;;;14.82;9.32;;;;;;;-143.84;81.01;45262.34;5029528;28;20208;-73
2022/03/12 04:48:40;;;;;;;26.05;12.68;;;;;;;-143.84;80.90;45271.88;5029212;28;20649;-74
2022/03/12 04:51:07;;;;;;;15.88;10.07;;;;;;;-143.84;80.83;45262.34;5029675;28;20261;-74
2022/03/12 04:53:34;;;;;;;20.05;11.27;;;;;;;-143.84;80.65;45287.09;5029503;28;20208;-74
2022/03/12 04:56:01;;;;;;;20.30;11.77;;;;;;;-143.84;80.87;45279.47;5029577;28;20208;-74
2022/03/12 04:58:29;;;;;;;22.90;11.27;;;;;;;-143.84;80.76;45254.72;5029223;28;20212;-74
2022/03/12 05:00:58;;;;;;;18.30;11.30;;;;;;;-143.84;80.73;45250.91;5029558;28;20250;-74
2022/03/12 05:03:25;;;;;;;20.10;11.68;;;;;;;-143.84;80.39;45247.09;5029536;28;20199;-74
2022/03/12 05:05:53;;;;;;;20.42;12.25;;;;;;;-143.84;80.27;45273.78;5029519;28;20321;-74
2022/03/12 05:08:23;;;;;;;19.80;12.00;;;;;;;-143.84;80.10;45199.50;5029226;28;20612;-74
2022/03/12 05:10:55;;;;;;;22.00;11.60;;;;;;;-143.84;80.14;45269.97;5029104;28;20697;-73
2022/03/12 05:13:24;;;;;;;19.33;12.77;;;;;;;-143.84;80.08;45245.19;5029214;28;20658;-74
2022/03/12 05:15:52;;;;;;;18.40;11.43;;;;;;;-143.84;80.39;45258.53;5029167;28;20246;-74
2022/03/12 05:18:23;;;;;;;21.33;12.27;;;;;;;-143.84;79.85;45233.78;5029252;28;20208;-74
2022/03/12 05:20:52;;;;;;;18.92;11.07;;;;;;;-143.84;79.80;45273.78;5029283;28;20200;-74
2022/03/12 05:23:20;;;;;;;21.50;11.38;;;;;;;-143.84;79.55;45262.34;5028958;28;20604;-74
2022/03/12 05:25:49;;;;;;;20.55;10.63;;;;;;;-143.84;79.23;45250.91;5028418;28;20232;-74
2022/03/12 05:28:19;;;;;;;17.05;11.25;;;;;;;-143.84;78.97;45233.78;5028451;28;20670;-74
2022/03/12 05:30:48;;;;;;;12.65;7.78;;;;;;;-143.84;78.85;45250.91;5028811;28;20196;-74
2022/03/12 05:33:16;;;;;;;18.63;10.48;;;;;;;-143.84;79.03;45289.00;5028504;28;20204;-74
2022/03/12 05:35:45;;;;;;;19.02;11.40;;;;;;;-143.84;79.07;45266.16;5028598;28;20674;-74
2022/03/12 05:38:13;;;;;;;16.75;10.90;;;;;;;-143.84;79.14;45273.78;5028961;28;20210;-74
2022/03/12 05:40:41;;;;;;;17.70;9.82;;;;;;;-143.84;78.93;45271.88;5028822;28;20254;-74
2022/03/12 05:43:11;;;;;;;18.35;9.60;;;;;;;-143.84;79.03;45226.16;5028744;28;20782;-74
2022/03/12 05:45:39;;;;;;;15.50;9.98;;;;;;;-143.84;78.25;45231.88;5029098;28;20267;-74
2022/03/12 05:48:09;;;;;;;18.30;10.30;;;;;;;-143.84;78.34;45237.59;5028860;28;20262;-73
2022/03/12 05:50:36;;;;;;;18.90;9.80;;;;;;;-143.84;78.02;45243.31;5028898;28;20321;-74
2022/03/12 05:53:09;;;;;;;19.23;11.50;;;;;;;-143.84;77.92;45266.16;5029288;28;20257;-74
2022/03/12 05:55:39;;;;;;;16.70;10.35;;;;;;;-143.84;77.89;45266.16;5029251;28;20208;-74
2022/03/12 05:58:07;;;;;;;17.02;11.15;;;;;;;-143.84;78.57;45233.78;5028849;28;20211;-73
2022/03/12 06:00:35;;;;;;;18.10;10.10;;;;;;;-143.84;78.28;45241.41;5029352;28;20212;-74
2022/03/12 06:03:03;;;;;;;19.27;11.65;;;;;;;-143.84;78.59;45239.50;5028741;28;20204;-74
2022/03/12 06:05:31;;;;;;;17.48;10.07;;;;;;;-143.84;78.17;45243.31;5028593;28;20227;-73
2022/03/12 06:07:59;;;;;;;20.50;12.82;;;;;;;-143.84;78.15;45241.41;5029567;28;20196;-74
2022/03/12 06:10:31;;;;;;;18.15;10.35;;;;;;;-143.84;78.30;45247.09;5031985;28;20250;-73
2022/03/12 06:12:58;;;;;;;18.02;11.13;;;;;;;-143.84;77.99;45247.09;5042604;28;20209;-73
2022/03/12 06:15:27;;;;;;;15.23;10.98;;;;;;;-143.84;78.12;45264.25;5049164;28;20216;-73
2022/03/12 06:17:55;;;;;;;20.13;11.10;;;;;;;-143.84;77.32;45250.91;5039931;28;20203;-73
2022/03/12 06:20:23;;;;;;;18.48;10.85;;;;;;;-143.84;75.69;45231.88;5043586;28;20210;-73
2022/03/12 06:22:52;;;;;;;15.30;10.23;;;;;;;-143.84;75.12;45239.50;5040844;28;20208;-73
2022/03/12 06:25:20;;;;;;;20.38;12.02;;;;;;;-143.84;73.45;45214.72;5040318;28;20226;-73
2022/03/12 06:27:54;;;;;;;16.98;11.15;;;;;;;-143.84;72.56;45243.31;5040130;28;20565;-74
2022/03/12 06:30:23;;;;;;;19.42;10.60;;;;;;;-143.84;71.99;45252.81;5039561;28;20235;-73
2022/03/12 06:32:50;;;;;;;13.57;10.10;;;;;;;-143.84;70.67;45268.06;5043434;28;20673;-73
2022/03/12 06:35:18;;;;;;;14.47;10.00;;;;;;;-143.84;69.82;45233.78;5040328;28;20207;-73
2022/03/12 06:37:45;;;;;;;19.13;10.37;;;;;;;-143.84;68.31;45216.63;5042500;28;20451;-73
2022/03/12 06:40:15;;;;;;;17.07;11.37;;;;;;;-143.84;67.61;45214.72;5040727;28;20457;-72
2022/03/12 06:42:43;;;;;;;14.10;9.67;;;;;;;-143.84;66.71;45235.69;5041490;28;20545;-73
2022/03/12 06:45:15;;;;;;;15.97;11.27;;;;;;;-143.84;65.56;45207.13;5042286;28;20474;-73
2022/03/12 06:47:43;;;;;;;17.10;10.60;;;;;;;-143.84;64.77;45210.94;5041279;28;21233;-73
2022/03/12 06:50:13;;;;;;;14.70;10.13;;;;;;;-143.84;64.88;45214.72;5041127;28;20565;-73
2022/03/12 06:52:43;;;;;;;19.30;9.83;;;;;;;-143.84;65.45;45218.53;5041611;28;20460;-73
2022/03/12 06:55:11;;;;;;;14.53;9.70;;;;;;;-143.84;64.39;45216.63;5040778;28;20462;-73
2022/03/12 06:57:38;;;;;;;14.97;10.23;;;;;;;-143.84;63.88;45209.03;5041671;28;20510;-73
2022/03/12 07:00:12;;;;;;;25.47;9.07;;;;;;;-143.84;64.06;45210.94;5043075;28;20441;-73
2022/03/12 07:02:41;;;;;;;16.90;10.30;;;;;;;-143.84;63.72;45235.69;5039293;28;20628;-73
2022/03/12 07:05:09;;;;;;;17.00;10.50;;;;;;;-143.84;63.33;45205.22;5039618;28;21214;-73
2022/03/12 07:07:36;;;;;;;15.60;9.80;;;;;;;-143.84;62.88;45231.88;5042809;28;20963;-73
2022/03/12 07:10:04;;;;;;;18.17;9.50;;;;;;;-143.84;62.79;45245.19;5039345;28;20449;-73
2022/03/12 07:12:31;;;;;;;14.50;9.50;;;;;;;-143.84;62.88;45260.44;5038509;28;20529;-73
2022/03/12 07:14:59;;;;;;;18.27;9.00;;;;;;;-143.84;62.33;45222.34;5039517;28;20511;-73
2022/03/12 07:17:26;;;;;;;11.37;8.67;;;;;;;-143.84;62.68;45209.03;5045068;28;20460;-73
2022/03/12 07:19:54;;;;;;;13.20;8.90;;;;;;;-143.84;63.17;45228.06;5040400;28;20449;-73
2022/03/12 07:22:22;;;;;;;14.20;9.60;;;;;;;-143.84;63.03;45209.03;5035577;28;20495;-73
2022/03/12 07:24:49;;;;;;;17.00;9.57;;;;;;;-143.84;63.26;45197.59;5041750;28;21439;-73
2022/03/12 07:27:16;;;;;;;16.50;10.80;;;;;;;-143.84;63.04;45212.84;5039417;28;20486;-73
2022/03/12 07:29:43;;;;;;;14.13;9.87;;;;;;;-143.84;62.51;45210.94;5041798;28;20458;-73
2022/03/12 07:32:11;;;;;;;12.60;8.87;;;;;;;-143.84;60.92;45222.34;5042192;28;20488;-73
2022/03/12 07:34:38;;;;;;;11.50;7.80;;;;;;;-143.84;60.01;45210.94;5039189;28;20455;-73
2022/03/12 07:37:09;;;;;;;11.30;7.90;;;;;;;-143.84;59.78;45220.44;5038685;28;20965;-73
2022/03/12 07:39:36;;;;;;;8.67;7.03;;;;;;;-143.84;59.87;45216.63;5038511;28;20485;-73
2022/03/12 07:42:04;;;;;;;14.10;8.67;;;;;;;-143.84;60.61;45193.78;5041046;28;20529;-73
2022/03/12 07:44:31;;;;;;;11.87;8.90;;;;;;;-143.84;61.08;45203.31;5039389;28;20518;-73
2022/03/12 07:46:59;;;;;;;13.80;8.83;;;;;;;-143.84;61.11;45210.94;5038494;28;21276;-73
2022/03/12 07:49:28;;;;;;;12.93;9.47;;;;;;;-143.84;61.55;45212.84;5046880;28;20458;-73
2022/03/12 07:51:55;;;;;;;11.30;8.97;;;;;;;-143.84;60.72;45216.63;5039015;28;20550;-73
2022/03/12 07:54:25;;;;;;;14.70;9.93;;;;;;;-143.84;60.29;45205.22;5041910;28;20455;-73
2022/03/12 07:56:52;;;;;;;13.60;9.27;;;;;;;-143.84;59.78;45205.22;5038342;28;20454;-73
2022/03/12 07:59:19;;;;;;;12.83;9.50;;;;;;;-143.84;59.71;45191.88;5037967;28;20454;-73
2022/03/12 08:01:47;;;;;;;12.83;8.73;;;;;;;-143.84;60.09;45233.78;5041135;28;20569;-73
2022/03/12 08:04:15;;;;;;;12.27;8.83;;;;;;;-143.84;60.86;45216.63;5038794;28;20491;-73
2022/03/12 08:06:43;;;;;;;11.17;7.87;;;;;;;-143.84;61.18;45184.25;5038379;28;20589;-73
2022/03/12 08:09:11;;;;;;;14.90;10.47;;;;;;;-143.84;60.38;45212.84;5042396;28;20462;-73
2022/03/12 08:11:39;;;;;;;14.63;9.20;;;;;;;-143.84;59.42;45214.72;5039379;28;20449;-73
2022/03/12 08:14:15;;;;;;;13.77;9.23;;;;;;;-143.84;58.87;45212.84;5039468;28;20454;-73
2022/03/12 08:16:44;;;;;;;17.13;8.57;;;;;;;-143.84;60.20;45201.41;5039869;28;20527;-74
2022/03/12 08:19:11;;;;;;;13.83;9.10;;;;;;;-143.84;60.49;45207.13;5039374;28;20452;-73
2022/03/12 08:21:39;;;;;;;11.33;8.13;;;;;;;-143.84;59.29;45201.41;5040164;28;20883;-73
2022/03/12 08:24:09;;;;;;;13.60;8.53;;;;;;;-143.84;58.56;45222.34;5038295;28;20509;-73
2022/03/12 08:26:41;;;;;;;15.87;8.40;;;;;;;-143.84;58.42;45212.84;5040592;28;20535;-72
2022/03/12 08:29:10;;;;;;;9.90;7.87;;;;;;;-143.84;58.92;45226.16;5037460;28;20471;-73
2022/03/12 08:31:38;;;;;;;11.20;8.17;;;;;;;-143.84;58.99;45216.63;5037798;28;20527;-73
2022/03/12 08:34:05;;;;;;;20.27;7.40;;;;;;;-143.84;58.25;45216.63;5041308;28;20457;-73
2022/03/12 08:36:32;;;;;;;10.23;7.87;;;;;;;-143.84;57.07;45210.94;5040980;28;20484;-73
2022/03/12 08:38:59;;;;;;;16.83;8.17;;;;;;;-143.84;56.40;45193.78;5036706;28;20454;-73
2022/03/12 08:41:27;;;;;;;13.43;8.67;;;;;;;-143.84;56.11;45186.16;5038210;28;20457;-73
2022/03/12 08:43:55;;;;;;;13.50;8.30;;;;;;;-143.84;56.35;45209.03;5039285;28;21258;-73
2022/03/12 08:46:23;;;;;;;12.60;8.50;;;;;;;-143.84;56.11;45231.88;5039339;28;21292;-73
2022/03/12 08:48:51;;;;;;;13.93;8.17;;;;;;;-143.84;56.65;45170.94;5038917;28;20529;-73
2022/03/12 08:51:19;;;;;;;12.20;8.50;;;;;;;-143.84;56.26;45180.47;5039668;28;20458;-73
2022/03/12 08:53:47;;;;;;;14.10;7.73;;;;;;;-143.84;56.42;45226.16;5038263;28;20932;-73
2022/03/12 08:56:14;;;;;;;14.60;8.80;;;;;;;-143.84;55.54;45218.53;5040234;28;20663;-73
2022/03/12 08:58:41;;;;;;;10.90;7.60;;;;;;;-143.84;57.59;45231.88;5040786;28;20454;-73
2022/03/12 09:01:09;;;;;;;13.10;8.00;;;;;;;-143.84;57.28;45197.59;5036452;28;20528;-73
2022/03/12 09:03:38;;;;;;;9.20;7.60;;;;;;;-143.84;58.61;45184.25;5037502;28;20549;-73
2022/03/12 09:06:07;;;;;;;12.40;7.93;;;;;;;-143.84;58.60;45209.03;5040037;28;20484;-73
2022/03/12 09:08:34;;;;;;;15.30;8.50;;;;;;;-143.84;58.55;45174.75;5038058;28;20461;-73
2022/03/12 09:11:02;;;;;;;14.00;9.07;;;;;;;-143.84;57.58;45210.94;5038221;28;20859;-73
2022/03/12 09:13:29;;;;;;;18.63;8.00;;;;;;;-143.84;56.43;45243.31;5040726;28;20446;-75
2022/03/12 09:15:57;;;;;;;10.23;7.87;;;;;;;-143.84;55.99;45203.31;5033097;28;20966;-76
2022/03/12 09:18:24;;;;;;;11.40;8.40;;;;;;;-143.84;55.61;45203.31;5037517;28;20512;-74
2022/03/12 09:20:53;;;;;;;10.83;8.00;;;;;;;-143.84;56.65;45209.03;5040232;28;20947;-73
2022/03/12 09:23:22;;;;;;;13.07;8.63;;;;;;;-143.84;56.88;45201.41;5033539;28;20454;-74
2022/03/12 09:25:51;;;;;;;14.40;9.17;;;;;;;-143.84;55.69;45188.06;5036166;28;20489;-74
2022/03/12 09:28:19;;;;;;;14.07;9.13;;;;;;;-143.84;55.26;45197.59;5035927;28;20453;-74
2022/03/12 09:30:51;;;;;;;11.63;8.60;;;;;;;-143.84;55.08;45169.03;5037541;28;20450;-72
2022/03/12 09:33:20;;;;;;;11.20;8.70;;;;;;;-143.84;55.30;45209.03;5042345;28;21107;-75
2022/03/12 09:35:48;;;;;;;15.60;8.63;;;;;;;-143.84;55.64;45193.78;5040008;28;20454;-75
2022/03/12 09:38:17;;;;;;;15.00;8.20;;;;;;;-143.84;56.94;45207.13;5036457;28;21036;-75
2022/03/12 09:40:45;;;;;;;13.60;9.10;;;;;;;-143.84;57.65;45214.72;5037084;28;20460;-74
2022/03/12 09:43:13;;;;;;;13.70;9.67;;;;;;;-143.84;57.38;45189.97;5036850;28;20513;-74
2022/03/12 09:45:40;;;;;;;12.03;8.90;;;;;;;-143.84;59.34;45222.34;5042653;28;21062;-74
2022/03/12 09:48:08;;;;;;;10.07;8.13;;;;;;;-143.84;58.82;45207.13;5040611;28;20524;-74
2022/03/12 09:50:36;;;;;;;12.40;9.77;;;;;;;-143.84;59.21;45205.22;5040624;28;20457;-76
2022/03/12 09:53:03;;;;;;;11.83;8.73;;;;;;;-143.84;59.58;45224.25;5040882;28;20508;-74
2022/03/12 09:55:32;;;;;;;10.47;8.40;;;;;;;-143.84;57.56;45205.22;5040612;28;20532;-74
2022/03/12 09:57:59;;;;;;;14.37;9.17;;;;;;;-143.84;55.90;45197.59;5043705;28;20511;-75
2022/03/12 10:00:27;;;;;;;11.30;8.43;;;;;;;-143.84;56.37;45184.25;5044203;28;20563;-75
2022/03/12 10:02:54;;;;;;;11.57;8.40;;;;;;;-143.84;55.45;45186.16;5041580;28;20507;-74
2022/03/12 10:05:22;;;;;;;14.80;8.90;;;;;;;-143.84;54.94;45191.88;5040422;28;20468;-74
2022/03/12 10:07:49;;;;;;;13.13;9.00;;;;;;;-143.84;55.06;45209.03;5037943;28;20448;-75
2022/03/12 10:10:19;;;;;;;14.40;8.60;;;;;;;-143.84;54.92;45212.84;5040091;28;20520;-75
2022/03/12 10:12:49;;;;;;;15.00;9.10;;;;;;;-143.84;54.33;45165.22;5039687;28;20461;-74
2022/03/12 10:15:17;;;;;;;12.77;9.57;;;;;;;-143.84;52.01;45186.16;5040933;28;20528;-75
2022/03/12 10:17:47;;;;;;;11.90;9.67;;;;;;;-143.84;51.63;45212.84;5043139;28;20445;-74
2022/03/12 10:20:15;;;;;;;12.23;9.30;;;;;;;-143.84;51.75;45188.06;5045097;28;20448;-75
2022/03/12 10:22:45;;;;;;;13.60;9.10;;;;;;;-143.84;51.82;45191.88;5043710;28;20465;-75
2022/03/12 10:25:13;;;;;;;10.40;8.80;;;;;;;-143.84;53.18;45188.06;5039863;28;20815;-75
2022/03/12 10:27:40;;;;;;;9.17;8.20;;;;;;;-143.84;52.84;45197.59;5035565;28;20474;-74
2022/03/12 10:30:11;;;;;;;19.33;8.30;;;;;;;-143.84;51.67;45146.19;5045075;28;20950;-74
2022/03/12 10:32:44;;;;;;;12.97;9.40;;;;;;;-143.84;51.80;45169.03;5043318;28;20960;-74
2022/03/12 10:35:14;;;;;;;13.00;9.97;;;;;;;-143.84;51.57;45199.50;5040232;28;20454;-74
2022/03/12 10:37:41;;;;;;;13.67;9.63;;;;;;;-143.84;53.41;45199.50;5043989;28;20439;-74
2022/03/12 10:40:12;;;;;;;11.40;9.37;;;;;;;-143.84;53.34;45178.56;5040116;28;21102;-74
2022/03/12 10:42:46;;;;;;;14.47;9.40;;;;;;;-143.84;52.31;45195.69;5039064;28;20949;-74
2022/03/12 10:45:16;;;;;;;12.77;9.53;;;;;;;-143.84;53.35;45170.94;5048604;28;20516;-74
2022/03/12 10:47:46;;;;;;;13.33;9.97;;;;;;;-143.84;53.42;45184.25;5042415;28;20500;-74
2022/03/12 10:50:17;;;;;;;10.03;8.77;;;;;;;-143.84;51.68;45193.78;5043343;28;20903;-74
2022/03/12 10:52:49;;;;;;;12.30;9.80;;;;;;;-143.84;51.41;45172.84;5044133;28;20457;-74
2022/03/12 10:55:19;;;;;;;9.30;7.93;;;;;;;-143.84;51.55;45165.22;5038407;28;20477;-74
2022/03/12 10:58:02;;;;;;;12.10;9.23;;;;;;;-143.84;51.46;45189.97;5040058;28;20961;-74
2022/03/12 11:00:33;;;;;;;13.30;9.60;;;;;;;-143.84;54.13;45188.06;5054125;28;20944;-74
2022/03/12 11:03:03;;;;;;;15.17;10.23;;;;;;;-143.84;53.47;45252.81;5042359;28;20492;-73
2022/03/12 11:05:34;;;;;;;11.10;9.30;;;;;;;-143.84;51.76;45229.97;5040773;28;20441;-73
2022/03/12 11:08:16;;;;;;;14.13;8.93;;;;;;;-143.84;51.94;45216.63;5043979;28;20457;-75
2022/03/12 11:10:50;;;;;;;16.90;11.27;;;;;;;-143.84;52.33;45169.03;5040803;28;20580;-74
2022/03/12 11:13:34;;;;;;;15.80;10.50;;;;;;;-143.84;52.61;45178.56;5051184;28;20445;-74
2022/03/12 11:16:07;;;;;;;19.73;10.77;;;;;;;-143.84;53.21;45197.59;5043482;28;20987;-75
2022/03/12 11:18:35;;;;;;;13.90;10.53;;;;;;;-143.84;53.11;45186.16;5043310;28;20451;-74
2022/03/12 11:21:02;;;;;;;12.50;9.80;;;;;;;-143.84;52.67;45180.47;5040994;28;20941;-75
2022/03/12 11:23:32;;;;;;;13.67;10.37;;;;;;;-143.84;51.41;45159.50;5038766;28;20491;-75
2022/03/12 11:26:06;;;;;;;11.20;9.37;;;;;;;-143.84;51.97;45186.16;5038105;28;20487;-75
2022/03/12 11:28:35;;;;;;;15.10;9.80;;;;;;;-143.84;51.74;45243.31;5039503;28;20513;-75
2022/03/12 11:31:06;;;;;;;14.97;10.13;;;;;;;-143.84;52.39;45169.03;5051568;28;20451;-74
2022/03/12 11:33:35;;;;;;;13.27;11.13;;;;;;;-143.84;49.95;45216.63;5038988;28;20450;-74
2022/03/12 11:36:09;;;;;;;11.63;8.80;;;;;;;-143.84;49.37;45172.84;5038807;28;20489;-74
2022/03/12 11:38:37;;;;;;;12.77;10.03;;;;;;;-143.84;50.02;45182.38;5042129;28;20528;-74
2022/03/12 11:41:08;;;;;;;12.70;9.70;;;;;;;-143.84;51.12;45155.69;5038205;28;20533;-74
2022/03/12 11:43:41;;;;;;;11.93;9.60;;;;;;;-143.84;50.70;45207.13;5043690;28;20561;-74
2022/03/12 11:46:14;;;;;;;12.63;9.40;;;;;;;-143.84;52.13;45186.16;5043101;28;20538;-74
2022/03/12 11:48:42;;;;;;;14.17;10.20;;;;;;;-143.84;52.77;45201.41;5041640;28;20480;-74
2022/03/12 11:51:19;;;;;;;11.70;9.20;;;;;;;-143.84;52.35;45184.25;5038623;28;20462;-75
2022/03/12 11:53:46;;;;;;;14.67;10.70;;;;;;;-143.84;52.67;45189.97;5038575;28;20449;-75
2022/03/12 11:56:14;;;;;;;29.53;9.50;;;;;;;-143.84;52.82;45228.06;5041116;28;20461;-75
2022/03/12 11:58:42;;;;;;;10.93;9.67;;;;;;;-143.84;52.95;45205.22;5045838;28;20461;-74
2022/03/12 12:01:11;;;;;;;14.03;10.33;;;;;;;-143.84;52.73;45167.13;5042076;28;20454;-74
2022/03/12 12:03:39;;;;;;;16.30;9.80;;;;;;;-143.84;53.43;45201.41;5041739;28;20496;-74
2022/03/12 12:06:08;;;;;;;12.67;9.00;;;;;;;-143.84;53.25;45216.63;5035815;28;20445;-74
2022/03/12 12:08:36;;;;;;;11.50;9.70;;;;;;;-143.84;52.55;45191.88;5052135;28;20784;-74
2022/03/12 12:11:03;;;;;;;12.40;9.87;;;;;;;-143.84;54.10;45167.13;5061669;28;20449;-75
2022/03/12 12:13:32;;;;;;;12.70;10.80;;;;;;;-143.84;54.33;45189.97;5068127;28;21159;-74
2022/03/12 12:16:04;;;;;;;13.40;8.93;;;;;;;-143.84;54.52;45189.97;5068139;28;20447;-75
2022/03/12 12:18:31;;;;;;;14.27;9.83;;;;;;;-143.84;53.24;45207.13;5068074;28;20449;-74
2022/03/12 12:20:59;;;;;;;12.80;9.40;;;;;;;-143.84;53.01;45186.16;5067787;28;20459;-75
2022/03/12 12:23:28;;;;;;;12.20;7.07;;;;;;;-143.84;53.44;45176.66;5050866;28;20827;-76